createdAt,value
2022-08-05T00:01:28.633Z,68.33
2022-08-05T00:03:57.158Z,68.07
2022-08-05T00:06:32.494Z,68.07
2022-08-05T00:08:58.375Z,67.75
2022-08-05T00:11:34.846Z,67.11
2022-08-05T00:14:00.577Z,67.11
2022-08-05T00:16:35.467Z,67.64
2022-08-05T00:19:03.626Z,67.97
2022-08-05T00:21:36.013Z,67.70
2022-08-05T00:24:10.279Z,68.23
2022-08-05T00:26:38.470Z,68.32
2022-08-05T00:29:08.245Z,68.14
2022-08-05T00:31:54.290Z,68.01
2022-08-05T00:34:53.547Z,68.81
2022-08-05T00:37:12.908Z,69.41
2022-08-05T00:39:14.305Z,68.43
2022-08-05T00:41:54.885Z,68.67
2022-08-05T00:44:18.240Z,67.65
2022-08-05T00:46:54.291Z,66.91
2022-08-05T00:49:21.526Z,66.91
2022-08-05T00:51:52.400Z,66.94
2022-08-05T00:54:22.877Z,66.55
2022-08-05T00:56:54.347Z,67.05
2022-08-05T00:59:24.490Z,68.17
2022-08-05T01:01:54.309Z,67.76
2022-08-05T01:04:26.847Z,68.01
2022-08-05T01:06:55.635Z,67.43
2022-08-05T01:09:25.469Z,67.21
2022-08-05T01:12:04.775Z,67.57
2022-08-05T01:14:39.873Z,67.12
2022-08-05T01:17:25.710Z,67.82
2022-08-05T01:20:03.581Z,66.99
2022-08-05T01:22:57.305Z,67.91
2022-08-05T01:25:59.875Z,68.08
2022-08-05T01:28:35.510Z,68.25
2022-08-05T01:31:44.564Z,68.01
2022-08-05T01:34:26.757Z,67.43
2022-08-05T01:37:05.187Z,67.33
2022-08-05T01:39:46.048Z,67.33
2022-08-05T01:42:13.863Z,68.11
2022-08-05T01:44:54.309Z,67.88
2022-08-05T01:47:21.577Z,67.99
2022-08-05T01:50:02.296Z,67.76
2022-08-05T01:52:27.797Z,67.22
2022-08-05T01:55:00.921Z,67.28
2022-08-05T01:58:18.772Z,67.04
2022-08-05T02:00:11.559Z,67.69
2022-08-05T02:02:46.549Z,67.43
2022-08-05T02:05:15.645Z,67.37
2022-08-05T02:07:56.308Z,67.14
2022-08-05T02:10:18.085Z,66.68
2022-08-05T02:12:55.788Z,66.58
2022-08-05T02:15:33.513Z,66.41
2022-08-05T02:18:31.766Z,66.37
2022-08-05T02:20:55.551Z,66.33
2022-08-05T02:23:30.095Z,66.33
2022-08-05T02:26:04.313Z,66.94
2022-08-05T02:28:41.673Z,67.42
2022-08-05T02:31:22.351Z,67.62
2022-08-05T02:33:57.207Z,66.28
2022-08-05T02:36:31.676Z,66.28
2022-08-05T02:39:01.142Z,66.30
2022-08-05T02:41:42.819Z,67.00
2022-08-05T02:44:13.527Z,67.28
2022-08-05T02:46:53.286Z,67.19
2022-08-05T02:49:18.601Z,67.33
2022-08-05T02:52:04.471Z,67.18
2022-08-05T02:54:36.374Z,66.65
2022-08-05T02:56:55.935Z,66.83
2022-08-05T02:59:27.834Z,67.21
2022-08-05T03:02:00.569Z,66.96
2022-08-05T03:04:30.788Z,67.12
2022-08-05T03:07:00.708Z,66.89
2022-08-05T03:09:38.196Z,66.68
2022-08-05T03:12:02.894Z,66.23
2022-08-05T03:14:32.961Z,66.66
2022-08-05T03:17:07.334Z,65.97
2022-08-05T03:19:36.114Z,66.05
2022-08-05T03:22:16.380Z,66.37
2022-08-05T03:24:38.304Z,65.95
2022-08-05T03:27:08.260Z,66.50
2022-08-05T03:29:45.821Z,66.99
2022-08-05T03:32:14.347Z,67.12
2022-08-05T03:34:50.820Z,66.71
2022-08-05T03:37:17.530Z,67.43
2022-08-05T03:39:59.096Z,67.12
2022-08-05T03:42:31.991Z,67.85
2022-08-05T03:45:01.500Z,67.26
2022-08-05T03:47:35.462Z,68.13
2022-08-05T03:50:03.792Z,67.15
2022-08-05T03:55:11.370Z,67.63
2022-08-05T03:56:05.518Z,67.15
2022-08-05T03:57:46.703Z,67.34
2022-08-05T04:00:17.251Z,67.16
2022-08-05T04:02:57.777Z,67.13
2022-08-05T04:05:23.104Z,67.96
2022-08-05T04:07:57.995Z,66.75
2022-08-05T04:10:24.517Z,66.81
2022-08-05T04:12:58.888Z,66.62
2022-08-05T04:15:32.969Z,66.55
2022-08-05T04:18:03.797Z,67.00
2022-08-05T04:20:35.268Z,67.27
2022-08-05T04:23:05.476Z,67.66
2022-08-05T04:25:56.592Z,67.75
2022-08-05T04:28:11.351Z,67.82
2022-08-05T04:30:39.593Z,67.67
2022-08-05T04:33:09.429Z,68.07
2022-08-05T04:36:11.276Z,68.07
2022-08-05T04:38:12.030Z,68.40
2022-08-05T04:40:47.881Z,67.99
2022-08-05T04:43:16.482Z,67.90
2022-08-05T04:45:48.953Z,68.10
2022-08-05T04:48:18.482Z,67.90
2022-08-05T04:51:03.237Z,66.92
2022-08-05T04:53:22.713Z,66.92
2022-08-05T04:56:32.979Z,67.24
2022-08-05T04:58:24.324Z,67.34
2022-08-05T05:00:54.166Z,68.66
2022-08-05T05:03:23.960Z,67.82
2022-08-05T05:06:35.868Z,67.17
2022-08-05T05:08:29.968Z,66.17
2022-08-05T05:10:56.796Z,66.17
2022-08-05T05:13:26.640Z,66.24
2022-08-05T05:16:02.193Z,66.75
2022-08-05T05:18:33.166Z,66.80
2022-08-05T05:21:00.793Z,67.15
2022-08-05T05:23:39.407Z,67.15
2022-08-05T05:26:02.096Z,66.91
2022-08-05T05:28:34.289Z,66.25
2022-08-05T05:31:05.615Z,66.65
2022-08-05T05:33:59.696Z,66.15
2022-08-05T05:36:08.438Z,66.15
2022-08-05T05:38:40.083Z,65.12
2022-08-05T05:41:12.213Z,65.12
2022-08-05T05:43:57.502Z,65.22
2022-08-05T05:46:17.530Z,66.44
2022-08-05T05:48:48.192Z,66.84
2022-08-05T05:51:23.724Z,66.68
2022-08-05T05:53:58.604Z,66.33
2022-08-05T05:56:32.732Z,67.33
2022-08-05T05:58:58.675Z,66.69
2022-08-05T06:01:36.951Z,66.46
2022-08-05T06:04:03.712Z,67.51
2022-08-05T06:06:34.775Z,66.35
2022-08-05T06:09:08.360Z,66.69
2022-08-05T06:11:39.375Z,66.75
2022-08-05T06:14:11.449Z,65.93
2022-08-05T06:16:41.216Z,65.57
2022-08-05T06:19:12.745Z,65.30
2022-08-05T06:21:49.742Z,65.64
2022-08-05T06:24:16.558Z,65.39
2022-08-05T06:26:51.241Z,65.17
2022-08-05T06:29:42.982Z,65.63
2022-08-05T06:31:51.079Z,65.00
2022-08-05T06:34:20.921Z,64.94
2022-08-05T06:36:57.566Z,65.68
2022-08-05T06:39:22.328Z,65.15
2022-08-05T06:41:53.712Z,65.37
2022-08-05T06:44:23.176Z,64.77
2022-08-05T06:46:54.346Z,63.61
2022-08-05T06:50:02.017Z,63.86
2022-08-05T06:51:57.087Z,63.28
2022-08-05T06:54:28.266Z,62.90
2022-08-05T06:57:58.118Z,64.06
2022-08-05T06:59:30.858Z,63.39
2022-08-05T07:02:02.331Z,63.68
2022-08-05T07:04:32.102Z,63.68
2022-08-05T07:07:02.461Z,62.93
2022-08-05T07:09:37.359Z,62.65
2022-08-05T07:12:06.641Z,62.05
2022-08-05T07:14:54.105Z,61.04
2022-08-05T07:17:59.459Z,60.46
2022-08-05T07:22:30.156Z,60.35
2022-08-05T07:25:23.028Z,60.03
2022-08-05T07:28:00.680Z,59.72
2022-08-05T07:30:22.331Z,59.62
2022-08-05T07:32:38.776Z,59.99
2022-08-05T07:36:02.517Z,59.82
2022-08-05T07:37:47.240Z,59.53
2022-08-05T07:40:26.623Z,59.53
2022-08-05T07:42:49.184Z,59.10
2022-08-05T07:45:56.639Z,58.90
2022-08-05T07:47:55.807Z,57.95
2022-08-05T07:50:28.854Z,57.26
2022-08-05T07:52:56.054Z,56.90
2022-08-05T07:55:44.335Z,57.05
2022-08-05T07:58:03.061Z,55.61
2022-08-05T08:00:29.641Z,55.84
2022-08-05T08:03:14.960Z,55.41
2022-08-05T08:05:30.733Z,54.66
2022-08-05T08:08:03.278Z,53.43
2022-08-05T08:10:32.750Z,52.92
2022-08-05T08:13:02.456Z,52.74
2022-08-05T08:16:33.505Z,52.74
2022-08-05T08:18:13.723Z,51.60
2022-08-05T08:20:45.220Z,50.51
2022-08-05T08:23:11.577Z,49.33
2022-08-05T08:26:00.197Z,49.75
2022-08-05T08:28:18.249Z,50.50
2022-08-05T08:30:47.862Z,50.76
2022-08-05T08:33:16.249Z,49.61
2022-08-05T08:35:52.741Z,48.58
2022-08-05T08:38:17.435Z,48.58
2022-08-05T08:40:51.693Z,48.14
2022-08-05T08:45:17.947Z,48.27
2022-08-05T08:45:55.233Z,47.88
2022-08-05T08:49:03.251Z,46.93
2022-08-05T08:51:22.115Z,47.67
2022-08-05T08:53:31.410Z,47.45
2022-08-05T08:56:06.028Z,48.72
2022-08-05T08:58:37.578Z,48.73
2022-08-05T09:01:11.092Z,49.35
2022-08-05T09:03:45.300Z,50.23
2022-08-05T09:06:18.512Z,50.45
2022-08-05T09:08:44.509Z,50.18
2022-08-05T09:11:14.994Z,49.84
2022-08-05T09:14:10.359Z,49.52
2022-08-05T09:16:16.868Z,48.19
2022-08-05T09:18:48.515Z,48.39
2022-08-05T09:21:21.261Z,47.95
2022-08-05T09:23:52.775Z,47.95
2022-08-05T09:26:23.187Z,46.40
2022-08-05T09:28:57.310Z,44.37
2022-08-05T09:32:42.167Z,43.17
2022-08-05T09:34:01.775Z,43.84
2022-08-05T09:36:55.716Z,43.84
2022-08-05T09:39:21.985Z,42.24
2022-08-05T09:41:59.939Z,40.79
2022-08-05T09:44:38.773Z,39.71
2022-08-05T09:47:17.337Z,40.53
2022-08-05T09:50:01.503Z,39.95
2022-08-05T09:52:31.167Z,40.84
2022-08-05T09:55:06.418Z,39.73
2022-08-05T09:57:45.151Z,39.76
2022-08-05T10:00:19.270Z,36.79
2022-08-05T10:02:51.866Z,36.69
2022-08-05T10:05:24.419Z,37.21
2022-08-05T10:08:35.823Z,36.32
2022-08-05T10:10:34.782Z,34.17
2022-08-05T10:13:09.688Z,34.02
2022-08-05T10:15:41.663Z,34.44
2022-08-05T10:18:23.600Z,32.34
2022-08-05T10:20:56.586Z,32.88
2022-08-05T10:23:59.052Z,33.29
2022-08-05T10:26:14.261Z,33.42
2022-08-05T10:28:45.036Z,33.50
2022-08-05T10:32:47.910Z,33.84
2022-08-05T10:33:52.291Z,31.69
2022-08-05T10:36:23.767Z,31.69
2022-08-05T10:38:55.008Z,32.06
2022-08-05T10:41:27.972Z,32.22
2022-08-05T10:44:07.724Z,31.23
2022-08-05T10:46:54.535Z,30.15
2022-08-05T10:49:33.078Z,29.27
2022-08-05T10:52:00.647Z,30.73
2022-08-05T10:54:57.012Z,29.77
2022-08-05T10:57:30.982Z,30.09
2022-08-05T11:00:20.485Z,29.57
2022-08-05T11:03:25.858Z,29.57
2022-08-05T11:05:41.490Z,29.71
2022-08-05T11:08:34.330Z,30.05
2022-08-05T11:10:50.397Z,30.10
2022-08-05T11:13:19.174Z,30.10
2022-08-05T11:16:00.937Z,30.57
2022-08-05T11:18:34.275Z,31.01
2022-08-05T11:21:12.019Z,31.65
2022-08-05T11:24:04.787Z,32.39
2022-08-05T11:26:28.710Z,32.39
2022-08-05T11:29:06.722Z,30.82
2022-08-05T11:31:56.930Z,31.66
2022-08-05T11:34:08.277Z,30.87
2022-08-05T11:36:47.163Z,30.49
2022-08-05T11:39:38.149Z,30.18
2022-08-05T11:42:11.457Z,30.77
2022-08-05T11:44:54.133Z,31.63
2022-08-05T11:47:19.935Z,31.03
2022-08-05T11:49:50.915Z,30.10
2022-08-05T11:52:31.007Z,29.91
2022-08-05T11:55:07.555Z,29.06
2022-08-05T11:58:08.074Z,29.39
2022-08-05T12:00:08.429Z,28.87
2022-08-05T12:02:40.165Z,29.21
2022-08-05T12:05:18.082Z,28.10
2022-08-05T12:08:09.295Z,27.96
2022-08-05T12:10:17.816Z,28.29
2022-08-05T12:12:59.536Z,28.01
2022-08-05T12:15:38.256Z,27.31
2022-08-05T12:18:03.041Z,28.07
2022-08-05T12:20:33.737Z,28.86
2022-08-05T12:25:56.963Z,29.41
2022-08-05T12:28:37.591Z,29.69
2022-08-05T12:31:07.536Z,30.09
2022-08-05T12:33:38.914Z,29.87
2022-08-05T12:36:11.321Z,29.87
2022-08-05T12:38:41.617Z,29.53
2022-08-05T12:41:14.781Z,29.26
2022-08-05T12:43:55.046Z,28.08
2022-08-05T12:46:29.363Z,27.25
2022-08-05T12:49:05.702Z,27.13
2022-08-05T12:52:13.117Z,27.19
2022-08-05T12:54:14.892Z,26.67
2022-08-05T12:56:45.186Z,26.35
2022-08-05T12:59:46.477Z,26.01
2022-08-05T13:02:07.945Z,26.46
2022-08-05T13:04:41.813Z,26.37
2022-08-05T13:07:19.497Z,26.48
2022-08-05T13:09:56.995Z,27.20
2022-08-05T13:12:28.409Z,27.04
2022-08-05T13:15:05.709Z,27.08
2022-08-05T13:17:41.810Z,27.23
2022-08-05T13:20:09.316Z,27.58
2022-08-05T13:22:46.322Z,26.27
2022-08-05T13:25:21.959Z,25.90
2022-08-05T13:27:52.791Z,26.03
2022-08-05T13:30:32.957Z,26.13
2022-08-05T13:32:57.203Z,25.82
2022-08-05T13:35:42.505Z,26.07
2022-08-05T13:38:04.866Z,25.61
2022-08-05T13:40:49.950Z,24.53
2022-08-05T13:43:03.172Z,25.32
2022-08-05T13:45:38.692Z,25.64
2022-08-05T13:48:08.761Z,25.72
2022-08-05T13:50:39.424Z,25.71
2022-08-05T13:53:15.997Z,25.08
2022-08-05T13:55:50.118Z,25.19
2022-08-05T13:58:13.074Z,25.66
2022-08-05T14:00:44.529Z,25.44
2022-08-05T14:03:16.122Z,25.33
2022-08-05T14:06:24.529Z,24.01
2022-08-05T14:08:20.155Z,24.15
2022-08-05T14:10:49.676Z,24.32
2022-08-05T14:13:19.439Z,24.19
2022-08-05T14:16:08.353Z,24.19
2022-08-05T14:18:23.043Z,24.31
2022-08-05T14:20:54.829Z,24.96
2022-08-05T14:23:28.078Z,26.17
2022-08-05T14:25:59.576Z,26.59
2022-08-05T14:28:30.660Z,26.67
2022-08-05T14:31:01.518Z,27.09
2022-08-05T14:33:56.322Z,25.74
2022-08-05T14:36:05.747Z,25.87
2022-08-05T14:38:37.194Z,25.67
2022-08-05T14:41:08.178Z,25.64
2022-08-05T14:43:59.519Z,28.23
2022-08-05T14:46:10.906Z,28.61
2022-08-05T14:48:41.447Z,28.50
2022-08-05T14:51:11.312Z,27.36
2022-08-05T14:53:44.383Z,26.49
2022-08-05T14:56:14.080Z,26.65
2022-08-05T14:58:47.809Z,27.50
2022-08-05T15:01:16.272Z,28.73
2022-08-05T15:03:46.589Z,29.31
2022-08-05T15:06:17.750Z,28.99
2022-08-05T15:08:58.656Z,28.77
2022-08-05T15:11:20.691Z,28.96
2022-08-05T15:13:52.162Z,28.82
2022-08-05T15:16:22.707Z,28.82
2022-08-05T15:18:52.660Z,29.10
2022-08-05T15:21:22.530Z,29.00
2022-08-05T15:23:54.086Z,29.06
2022-08-05T15:26:32.120Z,27.05
2022-08-05T15:28:55.245Z,27.05
2022-08-05T15:31:24.778Z,26.79
2022-08-05T15:34:18.593Z,26.74
2022-08-05T15:36:27.686Z,24.88
2022-08-05T15:40:40.991Z,24.89
2022-08-05T15:41:57.451Z,26.37
2022-08-05T15:44:00.657Z,26.34
2022-08-05T15:46:30.961Z,26.93
2022-08-05T15:49:09.900Z,26.93
2022-08-05T15:52:10.406Z,26.95
2022-08-05T15:54:08.407Z,26.94
2022-08-05T15:56:36.374Z,26.95
2022-08-05T15:59:06.424Z,27.23
2022-08-05T16:01:39.457Z,26.63
2022-08-05T16:04:10.432Z,26.22
2022-08-05T16:06:40.362Z,26.62
2022-08-05T16:09:10.608Z,28.04
2022-08-05T16:11:43.373Z,27.81
2022-08-05T16:14:17.105Z,27.74
2022-08-05T16:16:44.072Z,27.00
2022-08-05T16:19:25.590Z,27.46
2022-08-05T16:22:00.220Z,27.95
2022-08-05T16:24:40.259Z,27.79
2022-08-05T16:26:54.460Z,28.03
2022-08-05T16:29:26.549Z,28.01
2022-08-05T16:31:57.779Z,27.90
2022-08-05T16:34:28.034Z,29.14
2022-08-05T16:36:57.807Z,30.28
2022-08-05T16:40:04.463Z,30.73
2022-08-05T16:42:15.769Z,30.26
2022-08-05T16:44:31.536Z,29.40
2022-08-05T16:47:01.346Z,29.80
2022-08-05T16:49:31.184Z,30.47
2022-08-05T16:52:01.262Z,31.03
2022-08-05T16:54:33.111Z,31.03
2022-08-05T16:57:03.054Z,31.81
2022-08-05T16:59:34.516Z,32.14
2022-08-05T17:02:08.155Z,32.87
2022-08-05T17:04:40.416Z,33.74
2022-08-05T17:07:11.444Z,33.80
2022-08-05T17:09:57.844Z,33.78
2022-08-05T17:12:13.589Z,33.57
2022-08-05T17:14:45.074Z,32.69
2022-08-05T17:17:15.425Z,31.86
2022-08-05T17:19:46.402Z,31.94
2022-08-05T17:22:17.823Z,31.58
2022-08-05T17:24:57.009Z,31.53
2022-08-05T17:27:19.896Z,31.47
2022-08-05T17:29:59.490Z,31.97
2022-08-05T17:32:21.525Z,31.54
2022-08-05T17:34:53.069Z,31.00
2022-08-05T17:37:40.066Z,31.04
2022-08-05T17:39:55.182Z,30.64
2022-08-05T17:42:32.383Z,29.31
2022-08-05T17:44:58.159Z,29.14
2022-08-05T17:47:28.259Z,29.40
2022-08-05T17:50:10.457Z,28.30
2022-08-05T17:52:31.336Z,27.78
2022-08-05T17:55:03.095Z,28.10
2022-08-05T17:57:33.011Z,28.84
2022-08-05T18:00:05.785Z,28.87
2022-08-05T18:02:35.410Z,29.32
2022-08-05T18:05:07.951Z,31.93
2022-08-05T18:07:42.228Z,33.34
2022-08-05T18:10:20.436Z,34.26
2022-08-05T18:12:44.218Z,35.25
2022-08-05T18:15:15.410Z,35.75
2022-08-05T18:18:01.415Z,36.97
2022-08-05T18:20:16.493Z,37.11
2022-08-05T18:22:54.845Z,36.48
2022-08-05T18:25:18.171Z,36.63
2022-08-05T18:27:52.599Z,37.00
2022-08-05T18:30:19.928Z,37.83
2022-08-05T18:32:53.322Z,38.21
2022-08-05T18:35:49.366Z,37.77
2022-08-05T18:37:52.776Z,38.09
2022-08-05T18:40:34.071Z,37.55
2022-08-05T18:42:56.631Z,37.76
2022-08-05T18:45:41.847Z,38.46
2022-08-05T18:47:58.496Z,38.46
2022-08-05T18:50:47.177Z,38.76
2022-08-05T18:53:22.207Z,38.91
2022-08-05T18:55:48.372Z,39.31
2022-08-05T18:58:18.606Z,39.17
2022-08-05T19:00:49.897Z,39.60
2022-08-05T19:03:19.662Z,39.70
2022-08-05T19:06:12.764Z,40.29
2022-08-05T19:08:30.759Z,40.25
2022-08-05T19:10:55.120Z,40.46
2022-08-05T19:13:25.809Z,40.66
2022-08-05T19:16:03.630Z,40.56
2022-08-05T19:18:28.863Z,40.39
2022-08-05T19:20:59.505Z,40.67
2022-08-05T19:24:08.091Z,40.81
2022-08-05T19:26:03.144Z,40.74
2022-08-05T19:28:34.554Z,40.63
2022-08-05T19:31:05.738Z,40.81
2022-08-05T19:33:37.626Z,41.08
2022-08-05T19:36:11.500Z,41.25
2022-08-05T19:38:43.797Z,41.21
2022-08-05T19:41:13.750Z,41.50
2022-08-05T19:44:06.429Z,42.05
2022-08-05T19:46:16.672Z,41.62
2022-08-05T19:48:48.415Z,41.78
2022-08-05T19:51:59.797Z,41.98
2022-08-05T19:54:04.242Z,42.04
2022-08-05T19:56:21.245Z,42.07
2022-08-05T19:58:54.054Z,41.84
2022-08-05T20:01:28.527Z,42.08
2022-08-05T20:03:55.873Z,42.11
2022-08-05T20:06:29.296Z,42.46
2022-08-05T20:09:00.871Z,42.39
2022-08-05T20:11:30.032Z,42.79
2022-08-05T20:14:12.762Z,42.77
2022-08-05T20:16:34.106Z,43.42
2022-08-05T20:19:04.232Z,43.64
2022-08-05T20:21:34.062Z,43.64
2022-08-05T20:24:07.163Z,43.89
2022-08-05T20:26:38.627Z,44.28
2022-08-05T20:29:08.415Z,44.72
2022-08-05T20:31:51.281Z,44.92
2022-08-05T20:34:12.704Z,45.05
2022-08-05T20:36:43.431Z,45.28
2022-08-05T20:39:16.790Z,45.81
2022-08-05T20:41:47.885Z,45.96
2022-08-05T20:44:29.592Z,46.60
2022-08-05T20:46:49.892Z,46.50
2022-08-05T20:49:24.454Z,46.37
2022-08-05T20:51:54.025Z,46.46
2022-08-05T20:54:43.673Z,46.87
2022-08-05T20:57:01.040Z,46.99
2022-08-05T21:00:10.351Z,47.04
2022-08-05T21:02:05.218Z,47.20
2022-08-05T21:04:36.998Z,47.44
2022-08-05T21:07:08.978Z,47.80
2022-08-05T21:09:53.498Z,48.13
2022-08-05T21:12:11.971Z,48.36
2022-08-05T21:14:42.078Z,48.13
2022-08-05T21:17:13.664Z,48.38
2022-08-05T21:19:47.889Z,48.99
2022-08-05T21:22:14.965Z,48.99
2022-08-05T21:24:48.921Z,48.83
2022-08-05T21:27:18.223Z,48.88
2022-08-05T21:29:50.908Z,49.18
2022-08-05T21:32:20.819Z,49.57
2022-08-05T21:35:06.688Z,49.57
2022-08-05T21:37:23.941Z,49.69
2022-08-05T21:39:53.821Z,49.89
2022-08-05T21:42:41.458Z,50.03
2022-08-05T21:44:55.086Z,50.11
2022-08-05T21:47:55.273Z,50.05
2022-08-05T21:50:01.266Z,50.59
2022-08-05T21:52:30.386Z,50.81
2022-08-05T21:55:06.996Z,51.27
2022-08-05T21:57:32.889Z,51.36
2022-08-05T22:00:05.942Z,51.09
2022-08-05T22:02:37.880Z,51.14
2022-08-05T22:05:09.096Z,51.27
2022-08-05T22:07:58.401Z,51.75
2022-08-05T22:10:12.263Z,51.33
2022-08-05T22:12:44.761Z,51.29
2022-08-05T22:15:16.575Z,51.73
2022-08-05T22:17:48.808Z,51.97
2022-08-05T22:20:19.251Z,52.01
2022-08-05T22:23:16.758Z,52.91
2022-08-05T22:26:09.977Z,52.91
2022-08-05T22:28:29.430Z,52.57
2022-08-05T22:31:02.355Z,52.37
2022-08-05T22:33:55.818Z,52.53
2022-08-05T22:36:02.150Z,53.26
2022-08-05T22:38:33.126Z,53.26
2022-08-05T22:41:09.607Z,52.77
2022-08-05T22:43:36.736Z,53.03
2022-08-05T22:46:13.043Z,52.94
2022-08-05T22:48:40.126Z,53.03
2022-08-05T22:51:16.085Z,53.49
2022-08-05T22:53:42.838Z,53.34
2022-08-05T22:56:14.055Z,53.95
2022-08-05T22:58:43.769Z,54.25
2022-08-05T23:01:13.743Z,54.18
2022-08-05T23:03:57.665Z,54.23
2022-08-05T23:06:15.135Z,54.13
2022-08-05T23:08:46.575Z,54.28
2022-08-05T23:11:18.042Z,54.76
2022-08-05T23:13:48.505Z,54.79
2022-08-05T23:16:26.182Z,54.64
2022-08-05T23:18:52.858Z,54.99
2022-08-05T23:21:24.609Z,55.68
2022-08-05T23:23:56.053Z,55.68
2022-08-05T23:26:25.869Z,55.80
2022-08-05T23:28:57.222Z,55.90
2022-08-05T23:31:28.487Z,56.13
2022-08-05T23:34:06.170Z,56.27
2022-08-05T23:36:38.389Z,56.08
2022-08-05T23:39:03.713Z,56.80
2022-08-05T23:41:34.392Z,56.78
2022-08-05T23:44:08.650Z,57.09
2022-08-05T23:46:39.375Z,57.40
2022-08-05T23:49:16.054Z,57.67
2022-08-05T23:51:58.661Z,57.26
2022-08-05T23:54:36.354Z,57.11
2022-08-05T23:57:03.539Z,57.70
2022-08-05T23:59:37.561Z,58.38
